Terminal Aerodrome Forecast
Issued by NWS

Home | Current Version | Previous Version | Text Only | Print | Product List | Glossary On
Versions: 1 2 3 4 5 6 7 8 9 10 11 12 13 14 15 16 17 18 19 20 21 22 23 24 25 26 27
000
FTUS43 KDVN 251147
TAFBRL
TAF
KBRL 251147Z 2512/2612 17007KT P6SM SCT250
     FM251500 17012KT P6SM BKN250
     FM252300 15010KT P6SM BKN150
     FM260600 14008KT P6SM VCSH BKN030 OVC070 PROB30 2607/2612 3SM
      -SHRA BR OVC020=

USA.gov is the U.S. government's official web portal to all federal, state and local government web resources and services.